KCNM

Cavern City Air Trml Airport

Carlsbad, New Mexico, USA
METAR KCNM 221353Z AUTO 18003KT 10SM CLR 08/08 A3015 RMK AO2 SLP187 T00830078
Observed Flight Rules
Oct-22 @ 13:53 UTC (28 minutes ago) Visual Flight Rules
Wind Visibility Clouds
180° at 3 knots 10 miles
  • Clear skies
Temperatures Readings
Current 8°C / 46°F
Dewpoint 8°C / 46°F
Humidity 100%
Altimeter 30.15" Hg
Pressure 1018.7 hPa
Elevation 985
METAR KCNM 221353Z AUTO 18003KT 10SM CLR 08/08 A3015 RMK AO2 SLP187 T00830078
Observed Flight Rules
Oct-22 @ 13:53 UTC
(28 minutes ago)
VFR
Wind Visibility
180° at 3 knots 10 miles
Clouds
  • Clear skies
Temperature Dewpoint
8°C / 46°F 8°C / 46°F
Humidity Altimeter Pressure
100% 30.15" Hg 1018.7 hPa